createdAt,value
2022-07-29T00:00:23.256Z,0.77
2022-07-29T00:02:51.434Z,1.00
2022-07-29T00:05:19.570Z,0.60
2022-07-29T00:07:47.883Z,0.80
2022-07-29T00:10:16.017Z,0.60
2022-07-29T00:12:44.188Z,1.60
2022-07-29T00:15:13.815Z,0.68
2022-07-29T00:17:42.251Z,0.47
2022-07-29T00:20:11.536Z,0.50
2022-07-29T00:22:40.003Z,0.55
2022-07-29T00:25:08.688Z,0.77
2022-07-29T00:27:37.252Z,0.82
2022-07-29T00:30:06.116Z,0.85
2022-07-29T00:32:36.449Z,1.40
2022-07-29T00:35:22.322Z,0.70
2022-07-29T00:37:50.450Z,0.80
2022-07-29T00:40:18.646Z,0.95
2022-07-29T00:42:54.297Z,0.65
2022-07-29T00:45:22.971Z,0.60
2022-07-29T00:47:52.437Z,0.65
2022-07-29T00:50:20.690Z,0.90
2022-07-29T00:52:48.986Z,0.80
2022-07-29T00:55:18.415Z,0.80
2022-07-29T00:57:47.617Z,0.82
2022-07-29T01:00:19.391Z,0.90
2022-07-29T01:02:49.134Z,0.70
2022-07-29T01:05:24.943Z,1.05
2022-07-29T01:08:14.058Z,0.60
2022-07-29T01:10:43.799Z,0.65
2022-07-29T01:15:49.105Z,0.60
2022-07-29T01:18:22.890Z,0.77
2022-07-29T01:21:12.163Z,0.60
2022-07-29T01:23:58.464Z,0.60
2022-07-29T01:26:40.630Z,0.80
2022-07-29T01:29:14.911Z,0.80
2022-07-29T01:31:59.054Z,0.68
2022-07-29T01:34:37.437Z,0.50
2022-07-29T01:37:15.126Z,0.55
2022-07-29T01:39:46.048Z,0.60
2022-07-29T01:42:21.689Z,0.70
2022-07-29T01:44:57.990Z,1.25
2022-07-29T01:47:33.486Z,1.10
2022-07-29T01:50:08.360Z,1.00
2022-07-29T01:52:40.279Z,0.77
2022-07-29T01:55:14.844Z,0.80
2022-07-29T01:57:47.651Z,0.73
2022-07-29T02:00:19.171Z,0.52
2022-07-29T02:02:49.266Z,0.82
2022-07-29T02:05:21.136Z,0.65
2022-07-29T02:07:51.554Z,0.65
2022-07-29T02:10:25.870Z,0.77
2022-07-29T02:12:57.004Z,0.70
2022-07-29T02:15:29.209Z,0.70
2022-07-29T02:18:01.392Z,0.75
2022-07-29T02:20:30.240Z,1.10
2022-07-29T02:23:00.671Z,0.60
2022-07-29T02:25:36.743Z,0.75
2022-07-29T02:28:07.740Z,0.75
2022-07-29T02:30:41.101Z,0.43
2022-07-29T02:33:11.814Z,0.50
2022-07-29T02:35:42.631Z,0.60
2022-07-29T02:38:31.476Z,0.95
2022-07-29T02:41:02.032Z,0.60
2022-07-29T02:43:32.517Z,0.52
2022-07-29T02:46:04.615Z,0.63
2022-07-29T02:48:45.983Z,0.60
2022-07-29T02:51:43.812Z,0.50
2022-07-29T02:54:11.416Z,0.63
2022-07-29T02:56:42.526Z,1.15
2022-07-29T02:59:13.518Z,1.10
2022-07-29T03:01:45.784Z,0.60
2022-07-29T03:04:15.190Z,0.38
2022-07-29T03:06:45.619Z,0.63
2022-07-29T03:09:15.247Z,0.68
2022-07-29T03:14:20.288Z,0.80
2022-07-29T03:16:50.837Z,0.80
2022-07-29T03:19:19.951Z,0.47
2022-07-29T03:21:48.163Z,0.55
2022-07-29T03:24:29.845Z,0.88
2022-07-29T03:26:58.726Z,0.75
2022-07-29T03:29:33.450Z,0.63
2022-07-29T03:32:08.454Z,0.52
2022-07-29T03:34:38.383Z,0.98
2022-07-29T03:37:07.153Z,0.52
2022-07-29T03:39:40.635Z,0.80
2022-07-29T03:42:12.369Z,0.80
2022-07-29T03:44:42.847Z,0.82
2022-07-29T03:47:15.851Z,0.70
2022-07-29T03:49:46.405Z,0.77
2022-07-29T03:52:14.758Z,1.10
2022-07-29T03:54:42.947Z,0.70
2022-07-29T03:57:13.302Z,0.70
2022-07-29T03:59:42.205Z,0.57
2022-07-29T04:02:14.737Z,1.10
2022-07-29T04:04:43.822Z,0.70
2022-07-29T04:07:14.804Z,0.65
2022-07-29T04:09:43.630Z,0.90
2022-07-29T04:12:12.273Z,0.80
2022-07-29T04:14:40.868Z,0.70
2022-07-29T04:17:09.247Z,0.40
2022-07-29T04:19:38.653Z,0.55
2022-07-29T04:22:06.879Z,0.68
2022-07-29T04:24:34.983Z,0.77
2022-07-29T04:27:03.063Z,0.43
2022-07-29T04:29:31.253Z,0.80
2022-07-29T04:31:59.266Z,0.55
2022-07-29T04:34:27.952Z,0.70
2022-07-29T04:36:58.053Z,0.73
2022-07-29T04:41:59.074Z,0.50
2022-07-29T04:44:29.185Z,0.95
2022-07-29T04:46:58.765Z,1.02
2022-07-29T04:51:55.322Z,0.85
2022-07-29T04:54:24.837Z,1.05
2022-07-29T04:56:53.918Z,1.08
2022-07-29T04:59:22.063Z,0.70
2022-07-29T05:01:50.214Z,0.63
2022-07-29T05:04:18.776Z,0.55
2022-07-29T05:06:47.335Z,0.98
2022-07-29T05:09:15.483Z,0.90
2022-07-29T05:11:45.091Z,0.70
2022-07-29T05:16:42.850Z,1.20
2022-07-29T05:19:14.439Z,0.95
2022-07-29T05:21:43.230Z,0.70
2022-07-29T05:24:11.296Z,0.47
2022-07-29T05:26:39.655Z,0.82
2022-07-29T05:29:43.187Z,0.70
2022-07-29T05:31:57.307Z,0.65
2022-07-29T05:34:26.009Z,0.68
2022-07-29T05:36:54.340Z,0.90
2022-07-29T05:39:22.518Z,1.10
2022-07-29T05:42:11.168Z,0.70
2022-07-29T05:44:41.081Z,0.38
2022-07-29T05:47:09.342Z,0.95
2022-07-29T05:49:37.638Z,1.40
2022-07-29T05:52:06.389Z,0.77
2022-07-29T05:54:34.542Z,0.73
2022-07-29T05:57:02.766Z,1.08
2022-07-29T05:59:30.931Z,0.75
2022-07-29T06:02:00.511Z,1.00
2022-07-29T06:04:28.759Z,0.65
2022-07-29T06:06:56.993Z,0.73
2022-07-29T06:09:25.210Z,0.55
2022-07-29T06:11:53.478Z,0.77
2022-07-29T06:14:21.716Z,0.80
2022-07-29T06:16:49.823Z,0.57
2022-07-29T06:19:19.514Z,0.68
2022-07-29T06:24:17.931Z,1.00
2022-07-29T06:26:46.360Z,0.80
2022-07-29T06:29:14.466Z,0.95
2022-07-29T06:31:42.867Z,1.00
2022-07-29T06:34:11.001Z,1.05
2022-07-29T06:36:41.022Z,0.90
2022-07-29T06:39:11.037Z,0.68
2022-07-29T06:41:40.314Z,0.63
2022-07-29T06:44:11.448Z,1.27
2022-07-29T06:46:39.648Z,1.33
2022-07-29T06:49:07.978Z,0.95
2022-07-29T06:51:36.142Z,0.80
2022-07-29T06:54:06.588Z,0.90
2022-07-29T06:56:39.364Z,1.50
2022-07-29T06:59:10.150Z,0.90
2022-07-29T07:01:38.944Z,0.80
2022-07-29T07:04:07.607Z,1.27
2022-07-29T07:06:35.666Z,0.67
2022-07-29T07:09:05.777Z,1.00
2022-07-29T07:11:33.959Z,0.90
2022-07-29T07:14:03.974Z,0.90
2022-07-29T07:16:33.139Z,0.85
2022-07-29T07:19:01.488Z,1.00
2022-07-29T07:21:30.703Z,0.70
2022-07-29T07:23:59.889Z,0.90
2022-07-29T07:26:29.912Z,0.97
2022-07-29T07:28:58.169Z,0.77
2022-07-29T07:31:26.332Z,0.95
2022-07-29T07:33:55.249Z,0.80
2022-07-29T07:36:24.069Z,0.93
2022-07-29T07:38:52.222Z,0.88
2022-07-29T07:41:20.389Z,0.95
2022-07-29T07:43:50.110Z,1.30
2022-07-29T07:46:18.327Z,1.05
2022-07-29T07:48:46.458Z,1.00
2022-07-29T07:51:14.627Z,1.42
2022-07-29T07:53:42.706Z,0.70
2022-07-29T07:56:12.127Z,0.82
2022-07-29T07:58:41.075Z,0.90
2022-07-29T08:01:11.257Z,1.13
2022-07-29T08:03:40.181Z,1.00
2022-07-29T08:06:08.634Z,1.20
2022-07-29T08:08:37.896Z,1.00
2022-07-29T08:11:09.736Z,0.98
2022-07-29T08:13:39.276Z,1.55
2022-07-29T08:18:45.073Z,1.00
2022-07-29T08:21:15.140Z,1.30
2022-07-29T08:23:57.659Z,1.20
2022-07-29T08:26:27.957Z,0.90
2022-07-29T08:28:56.085Z,1.45
2022-07-29T08:31:24.282Z,1.30
2022-07-29T08:33:53.911Z,1.08
2022-07-29T08:36:22.904Z,1.05
2022-07-29T08:38:51.885Z,1.88
2022-07-29T08:41:20.747Z,1.02
2022-07-29T08:43:49.352Z,1.20
2022-07-29T08:46:18.462Z,0.77
2022-07-29T08:51:19.492Z,0.88
2022-07-29T08:53:50.496Z,1.17
2022-07-29T08:56:19.610Z,0.90
2022-07-29T09:01:36.109Z,1.65
2022-07-29T09:04:13.374Z,1.10
2022-07-29T09:06:46.798Z,0.85
2022-07-29T09:09:15.623Z,1.10
2022-07-29T09:11:44.865Z,1.00
2022-07-29T09:14:15.147Z,0.95
2022-07-29T09:17:00.851Z,1.20
2022-07-29T09:19:30.970Z,0.98
2022-07-29T09:22:03.535Z,1.33
2022-07-29T09:24:45.656Z,0.90
2022-07-29T09:27:23.003Z,0.95
2022-07-29T09:30:01.192Z,1.27
2022-07-29T09:32:30.484Z,1.20
2022-07-29T09:37:48.147Z,1.23
2022-07-29T09:40:18.476Z,0.90
2022-07-29T09:42:47.241Z,1.00
2022-07-29T09:45:29.025Z,1.20
2022-07-29T09:47:59.894Z,0.90
2022-07-29T09:50:38.641Z,1.20
2022-07-29T09:53:10.270Z,0.88
2022-07-29T09:55:49.224Z,1.05
2022-07-29T10:03:16.584Z,1.50
2022-07-29T10:05:46.261Z,1.00
2022-07-29T10:08:15.802Z,1.08
2022-07-29T10:10:45.483Z,1.15
2022-07-29T10:13:16.647Z,1.55
2022-07-29T10:15:47.224Z,1.40
2022-07-29T10:18:18.222Z,1.52
2022-07-29T10:20:46.880Z,1.48
2022-07-29T10:23:16.690Z,1.10
2022-07-29T10:25:46.562Z,1.70
2022-07-29T10:28:16.781Z,1.17
2022-07-29T10:30:46.878Z,1.23
2022-07-29T10:33:37.792Z,1.50
2022-07-29T10:36:27.436Z,1.10
2022-07-29T10:39:07.332Z,1.20
2022-07-29T10:42:08.048Z,1.27
2022-07-29T10:44:41.337Z,1.48
2022-07-29T10:47:09.575Z,1.05
2022-07-29T10:49:41.208Z,1.67
2022-07-29T10:52:10.390Z,1.42
2022-07-29T10:54:45.958Z,1.00
2022-07-29T10:57:26.001Z,1.40
2022-07-29T11:00:34.091Z,1.00
2022-07-29T11:08:45.701Z,1.70
2022-07-29T11:11:44.094Z,1.92
2022-07-29T11:14:20.091Z,0.88
2022-07-29T11:17:06.915Z,1.10
2022-07-29T11:19:40.123Z,1.60
2022-07-29T11:22:11.831Z,1.40
2022-07-29T11:24:50.449Z,1.25
2022-07-29T11:27:23.003Z,1.58
2022-07-29T11:29:56.705Z,1.50
2022-07-29T11:32:29.469Z,1.42
2022-07-29T11:35:17.508Z,1.48
2022-07-29T11:37:52.547Z,1.05
2022-07-29T11:40:25.997Z,1.48
2022-07-29T11:42:55.461Z,1.67
2022-07-29T11:45:43.164Z,1.63
2022-07-29T11:48:32.054Z,1.45
2022-07-29T11:51:02.980Z,1.75
2022-07-29T11:53:32.783Z,1.35
2022-07-29T11:56:02.731Z,1.50
2022-07-29T11:58:33.627Z,1.10
2022-07-29T12:01:04.881Z,1.38
2022-07-29T12:06:22.461Z,1.40
2022-07-29T12:08:50.595Z,1.40
2022-07-29T12:11:21.580Z,1.87
2022-07-29T12:13:52.435Z,1.67
2022-07-29T12:16:25.518Z,1.40
2022-07-29T12:19:02.280Z,1.13
2022-07-29T12:21:31.001Z,1.80
2022-07-29T12:24:08.750Z,0.98
2022-07-29T12:26:37.977Z,1.20
2022-07-29T12:29:20.003Z,1.20
2022-07-29T12:31:48.948Z,1.05
2022-07-29T12:34:18.183Z,1.10
2022-07-29T12:36:46.517Z,1.00
2022-07-29T12:39:14.826Z,0.85
2022-07-29T12:41:43.038Z,1.65
2022-07-29T12:44:13.032Z,1.25
2022-07-29T12:46:41.214Z,1.17
2022-07-29T12:49:09.969Z,1.10
2022-07-29T12:54:11.375Z,1.13
2022-07-29T12:56:44.562Z,0.77
2022-07-29T12:59:16.811Z,0.80
2022-07-29T13:01:47.930Z,0.80
2022-07-29T13:04:27.397Z,1.10
2022-07-29T13:07:02.284Z,1.25
2022-07-29T13:09:40.405Z,1.10
2022-07-29T13:12:11.139Z,1.10
2022-07-29T13:14:42.375Z,0.80
2022-07-29T13:17:12.355Z,1.13
2022-07-29T13:19:42.216Z,0.98
2022-07-29T13:22:11.119Z,1.00
2022-07-29T13:27:18.106Z,0.93
2022-07-29T13:29:48.041Z,0.98
2022-07-29T13:32:16.531Z,0.80
2022-07-29T13:34:44.705Z,1.02
2022-07-29T13:37:12.930Z,1.25
2022-07-29T13:39:41.097Z,0.80
2022-07-29T13:42:11.074Z,1.10
2022-07-29T13:44:39.470Z,0.95
2022-07-29T13:47:09.638Z,0.90
2022-07-29T13:49:37.786Z,0.75
2022-07-29T13:52:08.206Z,0.80
2022-07-29T13:54:42.107Z,1.15
2022-07-29T13:57:11.520Z,1.25
2022-07-29T13:59:40.112Z,1.10
2022-07-29T14:02:10.922Z,1.17
2022-07-29T14:04:39.686Z,1.10
2022-07-29T14:07:09.171Z,0.93
2022-07-29T14:09:41.326Z,0.95
2022-07-29T14:12:10.574Z,1.05
2022-07-29T14:14:38.735Z,1.15
2022-07-29T14:17:08.172Z,1.17
2022-07-29T14:19:39.130Z,0.82
2022-07-29T14:22:09.385Z,0.80
2022-07-29T14:24:38.031Z,1.08
2022-07-29T14:27:06.767Z,0.95
2022-07-29T14:29:37.817Z,1.15
2022-07-29T14:32:07.877Z,1.13
2022-07-29T14:34:38.634Z,1.15
2022-07-29T14:37:07.610Z,0.88
2022-07-29T14:39:42.864Z,1.15
2022-07-29T14:42:12.719Z,1.20
2022-07-29T14:44:42.105Z,1.13
2022-07-29T14:47:10.650Z,1.00
2022-07-29T14:49:40.103Z,0.77
2022-07-29T14:52:08.207Z,1.10
2022-07-29T14:54:36.322Z,0.85
2022-07-29T14:57:04.547Z,1.20
2022-07-29T14:59:32.713Z,1.10
2022-07-29T15:02:01.331Z,1.02
2022-07-29T15:04:29.951Z,1.10
2022-07-29T15:06:59.401Z,0.73
2022-07-29T15:09:27.653Z,0.88
2022-07-29T15:11:56.150Z,0.73
2022-07-29T15:14:24.458Z,1.05
2022-07-29T15:16:52.714Z,1.23
2022-07-29T15:19:21.451Z,0.65
2022-07-29T15:21:49.484Z,0.82
2022-07-29T15:24:19.292Z,0.88
2022-07-29T15:26:48.405Z,1.40
2022-07-29T15:29:17.059Z,1.17
2022-07-29T15:31:45.397Z,0.88
2022-07-29T15:34:13.614Z,1.25
2022-07-29T15:36:52.085Z,1.10
2022-07-29T15:39:23.540Z,1.10
2022-07-29T15:41:52.073Z,0.73
2022-07-29T15:44:21.308Z,0.70
2022-07-29T15:47:05.045Z,1.25
2022-07-29T15:49:47.133Z,1.00
2022-07-29T15:52:25.039Z,0.80
2022-07-29T15:54:56.173Z,1.00
2022-07-29T15:57:24.897Z,0.80
2022-07-29T15:59:53.312Z,0.77
2022-07-29T16:02:21.809Z,0.83
2022-07-29T16:04:49.955Z,0.82
2022-07-29T16:07:18.147Z,0.95
2022-07-29T16:09:51.024Z,1.33
2022-07-29T16:12:22.462Z,0.80
2022-07-29T16:14:51.180Z,0.98
2022-07-29T16:17:19.602Z,1.08
2022-07-29T16:19:47.929Z,1.03
2022-07-29T16:22:16.478Z,1.00
2022-07-29T16:24:44.620Z,0.80
2022-07-29T16:27:12.751Z,0.73
2022-07-29T16:29:42.282Z,0.70
2022-07-29T16:32:10.605Z,0.88
2022-07-29T16:34:38.965Z,0.87
2022-07-29T16:37:07.038Z,0.80
2022-07-29T16:39:35.208Z,0.98
2022-07-29T16:42:05.427Z,0.80
2022-07-29T16:44:34.875Z,1.30
2022-07-29T16:47:05.621Z,1.23
2022-07-29T16:49:33.724Z,1.10
2022-07-29T16:52:01.957Z,0.90
2022-07-29T16:54:29.980Z,1.17
2022-07-29T16:57:00.594Z,1.17
2022-07-29T16:59:29.719Z,1.00
2022-07-29T17:01:58.068Z,1.10
2022-07-29T17:04:29.118Z,1.08
2022-07-29T17:06:57.662Z,1.10
2022-07-29T17:09:26.275Z,0.90
2022-07-29T17:11:55.729Z,1.10
2022-07-29T17:17:01.054Z,1.00
2022-07-29T17:19:32.810Z,0.80
2022-07-29T17:22:09.502Z,0.80
2022-07-29T17:24:40.980Z,0.95
2022-07-29T17:27:09.660Z,0.80
2022-07-29T17:29:38.608Z,1.20
2022-07-29T17:32:08.063Z,0.90
2022-07-29T17:34:38.298Z,0.98
2022-07-29T17:37:07.950Z,0.98
2022-07-29T17:39:36.078Z,1.30
2022-07-29T17:42:04.895Z,1.20
2022-07-29T17:44:36.430Z,1.90
2022-07-29T17:47:05.706Z,1.08
2022-07-29T17:49:37.514Z,1.30
2022-07-29T17:52:06.258Z,1.15
2022-07-29T17:54:34.543Z,1.02
2022-07-29T17:57:02.750Z,1.20
2022-07-29T17:59:30.850Z,1.30
2022-07-29T18:01:59.048Z,1.00
2022-07-29T18:04:28.558Z,1.15
2022-07-29T18:09:26.273Z,1.10
2022-07-29T18:11:54.413Z,1.25
2022-07-29T18:14:22.662Z,1.42
2022-07-29T18:16:50.992Z,1.30
2022-07-29T18:19:19.121Z,1.10
2022-07-29T18:21:54.651Z,0.90
2022-07-29T18:24:27.483Z,1.23
2022-07-29T18:26:56.525Z,1.25
2022-07-29T18:29:24.887Z,1.42
2022-07-29T18:31:53.013Z,1.55
2022-07-29T18:34:21.132Z,1.45
2022-07-29T18:36:49.323Z,1.25
2022-07-29T18:39:19.702Z,1.17
2022-07-29T18:41:51.614Z,1.00
2022-07-29T18:44:22.072Z,1.20
2022-07-29T18:46:52.174Z,1.20
2022-07-29T18:49:20.651Z,1.52
2022-07-29T18:51:49.332Z,1.35
2022-07-29T18:54:18.339Z,1.40
2022-07-29T18:56:47.422Z,2.38
2022-07-29T18:59:20.122Z,1.48
2022-07-29T19:01:48.820Z,1.10
2022-07-29T19:04:17.278Z,1.20
2022-07-29T19:06:45.713Z,1.38
2022-07-29T19:09:14.085Z,0.95
2022-07-29T19:11:42.212Z,1.88
2022-07-29T19:14:10.486Z,1.40
2022-07-29T19:16:39.946Z,1.08
2022-07-29T19:19:08.874Z,1.25
2022-07-29T19:21:37.155Z,1.30
2022-07-29T19:24:07.851Z,1.30
2022-07-29T19:26:43.797Z,1.15
2022-07-29T19:29:11.883Z,1.35
2022-07-29T19:31:41.543Z,1.30
2022-07-29T19:34:10.317Z,1.13
2022-07-29T19:36:38.722Z,1.40
2022-07-29T19:39:06.851Z,1.05
2022-07-29T19:41:34.977Z,1.00
2022-07-29T19:44:03.215Z,0.88
2022-07-29T19:46:31.481Z,1.45
2022-07-29T19:49:01.106Z,1.42
2022-07-29T19:53:57.234Z,1.20
2022-07-29T19:56:27.180Z,0.98
2022-07-29T19:58:57.274Z,1.13
2022-07-29T20:01:25.990Z,1.63
2022-07-29T20:03:54.787Z,1.20
2022-07-29T20:06:24.294Z,0.90
2022-07-29T20:08:56.776Z,1.25
2022-07-29T20:11:27.304Z,1.40
2022-07-29T20:13:55.427Z,1.27
2022-07-29T20:16:23.656Z,1.45
2022-07-29T20:18:53.774Z,1.30
2022-07-29T20:21:21.961Z,1.73
2022-07-29T20:23:51.469Z,1.63
2022-07-29T20:28:49.412Z,0.93
2022-07-29T20:31:18.752Z,1.50
2022-07-29T20:33:46.960Z,1.58
2022-07-29T20:36:15.763Z,1.85
2022-07-29T20:38:43.937Z,1.45
2022-07-29T20:41:13.451Z,1.85
2022-07-29T20:46:10.008Z,1.20
2022-07-29T20:48:39.571Z,1.20
2022-07-29T20:51:08.294Z,1.02
2022-07-29T20:53:38.227Z,1.48
2022-07-29T20:56:07.482Z,1.50
2022-07-29T20:58:38.089Z,1.42
2022-07-29T21:01:07.569Z,1.60
2022-07-29T21:06:03.759Z,1.17
2022-07-29T21:08:32.049Z,1.70
2022-07-29T21:11:00.125Z,1.60
2022-07-29T21:13:28.306Z,1.55
2022-07-29T21:16:02.021Z,2.05
2022-07-29T21:18:36.876Z,1.17
2022-07-29T21:21:06.275Z,1.27
2022-07-29T21:23:34.921Z,1.55
2022-07-29T21:26:03.095Z,1.92
2022-07-29T21:28:36.540Z,1.60
2022-07-29T21:31:07.796Z,1.50
2022-07-29T21:33:36.373Z,2.15
2022-07-29T21:41:22.364Z,1.15
2022-07-29T21:43:50.404Z,1.48
2022-07-29T21:46:20.680Z,1.75
2022-07-29T21:48:52.679Z,1.35
2022-07-29T21:51:20.838Z,2.25
2022-07-29T21:53:50.487Z,1.30
2022-07-29T21:56:21.419Z,1.95
2022-07-29T21:58:52.657Z,1.83
2022-07-29T22:01:22.210Z,2.28
2022-07-29T22:06:18.599Z,1.40
2022-07-29T22:08:47.804Z,1.35
2022-07-29T22:11:16.205Z,1.35
2022-07-29T22:13:44.351Z,1.60
2022-07-29T22:16:14.814Z,1.50
2022-07-29T22:18:46.911Z,1.40
2022-07-29T22:21:15.196Z,1.30
2022-07-29T22:23:43.494Z,2.17
2022-07-29T22:26:11.744Z,1.73
2022-07-29T22:28:39.904Z,1.92
2022-07-29T22:31:08.828Z,1.53
2022-07-29T22:33:37.090Z,1.30
2022-07-29T22:36:07.410Z,1.25
2022-07-29T22:38:35.604Z,1.48
2022-07-29T22:41:03.802Z,1.52
2022-07-29T22:43:31.899Z,1.40
2022-07-29T22:46:00.305Z,1.73
2022-07-29T22:48:28.569Z,1.75
2022-07-29T22:50:56.662Z,1.33
2022-07-29T22:53:26.074Z,1.30
2022-07-29T22:55:54.564Z,1.58
2022-07-29T22:58:22.681Z,1.60
2022-07-29T23:00:50.909Z,0.93
2022-07-29T23:03:19.076Z,1.38
2022-07-29T23:05:47.222Z,1.80
2022-07-29T23:08:15.274Z,1.25
2022-07-29T23:10:44.868Z,1.67
2022-07-29T23:13:12.939Z,1.48
2022-07-29T23:15:41.336Z,1.83
2022-07-29T23:18:09.574Z,1.75
2022-07-29T23:20:37.695Z,2.22
2022-07-29T23:23:05.794Z,1.20
2022-07-29T23:25:33.885Z,1.73
2022-07-29T23:28:03.448Z,1.92
2022-07-29T23:30:31.633Z,1.88
2022-07-29T23:32:59.804Z,1.30
2022-07-29T23:35:28.414Z,2.00
2022-07-29T23:37:56.554Z,1.55
2022-07-29T23:40:24.834Z,1.65
2022-07-29T23:42:53.011Z,1.65
2022-07-29T23:45:22.511Z,1.40
2022-07-29T23:48:08.070Z,2.08
2022-07-29T23:50:36.193Z,1.92
2022-07-29T23:53:04.572Z,1.88
2022-07-29T23:55:37.332Z,1.38
2022-07-29T23:58:07.271Z,1.02
